Time;durP1;ratioP1;P1;durP2;ratioP2;P2;SDS_P1;SDS_P2;PMS_P1;PMS_P2;Temp;Humidity;BMP_temperature;BMP_pressure;BME280_temperature;BME280_humidity;BME280_pressure;Samples;Min_cycle;Max_cycle;Signal;HPM_P1;HPM_P2
2022/08/18 11:24:34;;;;;;;;;;;15.90;69.90;;;;;;6146766;23;19935;-76
2022/08/18 11:27:01;;;;;;;;;;;15.80;69.90;;;;;;6150239;23;19916;-76
2022/08/18 11:29:27;;;;;;;;;;;15.80;69.70;;;;;;6151053;23;19967;-74
2022/08/18 11:31:58;;;;;;;;;;;15.80;69.60;;;;;;6150713;23;19908;-75
2022/08/18 11:34:30;;;;;;;;;;;15.90;69.60;;;;;;6149613;23;21317;-75
2022/08/18 11:37:01;;;;;;;;;;;15.90;69.70;;;;;;6150926;23;19915;-74
2022/08/18 11:39:28;;;;;;;;;;;15.90;69.70;;;;;;6124823;23;19944;-74
2022/08/18 11:41:56;;;;;;;;;;;15.90;69.90;;;;;;6124623;23;19916;-76
2022/08/18 11:44:30;;;;;;;;;;;15.80;70.00;;;;;;6150209;23;19913;-75
2022/08/18 11:47:07;;;;;;;;;;;15.80;69.90;;;;;;6099643;23;19975;-76
2022/08/18 11:49:33;;;;;;;;;;;15.80;70.20;;;;;;6124924;23;20355;-76
2022/08/18 11:52:05;;;;;;;;;;;15.80;70.50;;;;;;6125099;23;19928;-75
2022/08/18 11:54:38;;;;;;;;;;;15.80;70.60;;;;;;6125686;23;20019;-77
2022/08/18 11:57:22;;;;;;;;;;;15.70;70.70;;;;;;6125028;23;19979;-80
2022/08/18 11:59:49;;;;;;;;;;;15.70;70.60;;;;;;6151000;23;19905;-77
2022/08/18 12:02:19;;;;;;;;;;;15.70;70.70;;;;;;6150711;23;20278;-80
2022/08/18 12:04:47;;;;;;;;;;;15.70;70.60;;;;;;6153205;23;20363;-78
2022/08/18 12:07:15;;;;;;;;;;;15.70;70.70;;;;;;6126728;23;19909;-78
2022/08/18 12:09:49;;;;;;;;;;;15.70;70.40;;;;;;6126812;23;19904;-70
2022/08/18 12:12:21;;;;;;;;;;;15.70;70.50;;;;;;6150258;23;19939;-72
2022/08/18 12:15:10;;;;;;;;;;;15.70;70.50;;;;;;6152604;23;19917;-73
2022/08/18 12:17:37;;;;;;;;;;;15.70;70.50;;;;;;6149205;23;19909;-73
2022/08/18 12:20:07;;;;;;;;;;;15.70;70.70;;;;;;6102419;23;19908;-73
2022/08/18 12:22:34;;;;;;;;;;;15.70;71.00;;;;;;6103176;23;19913;-73
2022/08/18 12:25:01;;;;;;;;;;;15.70;71.10;;;;;;6152274;23;19974;-74
2022/08/18 12:27:29;;;;;;;;;;;15.70;70.90;;;;;;6153091;23;19913;-74
2022/08/18 12:29:57;;;;;;;;;;;15.70;70.90;;;;;;6150912;23;19995;-73
2022/08/18 12:32:24;;;;;;;;;;;15.60;71.20;;;;;;6152281;23;20386;-75
2022/08/18 12:34:50;;;;;;;;;;;15.60;71.20;;;;;;6126701;23;19932;-73
2022/08/18 12:37:18;;;;;;;;;;;15.60;71.30;;;;;;6151084;23;20307;-73
2022/08/18 12:39:45;;;;;;;;;;;15.60;71.40;;;;;;6152129;23;19908;-73
2022/08/18 12:42:11;;;;;;;;;;;15.50;71.70;;;;;;6153039;23;19911;-73
2022/08/18 12:44:40;;;;;;;;;;;15.60;71.60;;;;;;6151843;23;19905;-73
2022/08/18 12:47:11;;;;;;;;;;;15.50;71.50;;;;;;6151803;23;19928;-77
2022/08/18 12:49:38;;;;;;;;;;;15.50;71.40;;;;;;6150859;23;19975;-76
2022/08/18 12:52:05;;;;;;;;;;;15.50;71.60;;;;;;6152335;23;19916;-73
2022/08/18 12:54:33;;;;;;;;;;;15.50;71.80;;;;;;6124869;23;20332;-74
2022/08/18 12:56:59;;;;;;;;;;;15.50;71.40;;;;;;6151775;23;19912;-74
2022/08/18 12:59:26;;;;;;;;;;;15.50;71.50;;;;;;6151897;23;20288;-74
2022/08/18 13:01:53;;;;;;;;;;;15.50;71.20;;;;;;6149841;23;19912;-74
2022/08/18 13:04:19;;;;;;;;;;;15.50;71.50;;;;;;6152035;23;20260;-74
2022/08/18 13:06:46;;;;;;;;;;;15.50;71.80;;;;;;6125933;23;19919;-74
2022/08/18 13:09:13;;;;;;;;;;;15.50;71.70;;;;;;6155193;23;19927;-74
2022/08/18 13:11:40;;;;;;;;;;;15.50;71.60;;;;;;6155175;23;19931;-74
2022/08/18 13:14:07;;;;;;;;;;;15.50;71.40;;;;;;6154488;23;19972;-74
2022/08/18 13:16:34;;;;;;;;;;;15.50;71.40;;;;;;6155663;23;20328;-74
2022/08/18 13:19:01;;;;;;;;;;;15.50;71.50;;;;;;6154971;23;19908;-73
2022/08/18 13:21:27;;;;;;;;;;;15.50;71.80;;;;;;6155483;23;19911;-73
2022/08/18 13:23:54;;;;;;;;;;;15.40;72.40;;;;;;6153772;23;19922;-73
2022/08/18 13:26:25;;;;;;;;;;;15.40;72.20;;;;;;6128809;23;19979;-74
2022/08/18 13:28:52;;;;;;;;;;;15.40;72.60;;;;;;6155501;23;19926;-73
2022/08/18 13:31:19;;;;;;;;;;;15.40;72.50;;;;;;6154411;23;19964;-74
2022/08/18 21:39:14;;;;;;;;;;;15.10;65.40;;;;;;6125212;23;20346;-74
2022/08/18 21:41:45;;;;;;;;;;;15.10;65.40;;;;;;6097995;23;19909;-74
2022/08/18 21:44:16;;;;;;;;;;;15.10;65.80;;;;;;6100089;23;19952;-74
2022/08/18 21:46:42;;;;;;;;;;;15.20;65.20;;;;;;6075574;23;19908;-72
2022/08/18 21:49:09;;;;;;;;;;;15.20;65.30;;;;;;6100148;23;19960;-77
2022/08/18 21:51:47;;;;;;;;;;;15.20;65.50;;;;;;6099719;23;19940;-69
2022/08/18 21:54:15;;;;;;;;;;;15.10;65.40;;;;;;6099904;23;19964;-69
2022/08/18 21:56:41;;;;;;;;;;;15.20;65.60;;;;;;6099818;23;19924;-70
2022/08/18 21:59:15;;;;;;;;;;;15.20;65.30;;;;;;6099719;23;20231;-71
2022/08/18 22:01:48;;;;;;;;;;;15.20;65.90;;;;;;6099670;23;20236;-70
2022/08/18 22:04:26;;;;;;;;;;;15.20;66.10;;;;;;6125149;23;19909;-70
2022/08/18 22:06:54;;;;;;;;;;;15.20;65.90;;;;;;6099825;23;19905;-71
2022/08/18 22:15:06;;;;;;;;;;;15.20;65.90;;;;;;6125000;23;20387;-71
2022/08/18 22:17:43;;;;;;;;;;;15.20;66.00;;;;;;6122448;23;19984;-70
2022/08/18 22:20:28;;;;;;;;;;;15.20;65.80;;;;;;6098299;23;19916;-71
2022/08/18 22:25:43;;;;;;;;;;;15.20;65.50;;;;;;6125077;23;19916;-70
2022/08/18 22:28:09;;;;;;;;;;;15.20;66.10;;;;;;6125091;23;19916;-70
2022/08/18 22:30:36;;;;;;;;;;;15.20;66.30;;;;;;6124512;23;19909;-71
2022/08/18 22:33:02;;;;;;;;;;;15.20;66.40;;;;;;6125346;23;19913;-70
2022/08/18 22:35:29;;;;;;;;;;;15.20;66.60;;;;;;6124921;23;19972;-70
